sensor_id;sensor_type;location;lat;lon;timestamp;P1;durP1;ratioP1;P2;durP2;ratioP2
3943;SDS011;1986;52.546;13.428;2022-09-29T00:00:19;5.17;;;4.90;;
3943;SDS011;1986;52.546;13.428;2022-09-29T00:02:46;4.60;;;4.40;;
3943;SDS011;1986;52.546;13.428;2022-09-29T00:05:13;6.63;;;4.77;;
3943;SDS011;1986;52.546;13.428;2022-09-29T00:07:40;6.23;;;5.63;;
3943;SDS011;1986;52.546;13.428;2022-09-29T00:10:08;15.70;;;4.30;;
3943;SDS011;1986;52.546;13.428;2022-09-29T00:12:35;7.70;;;4.97;;
3943;SDS011;1986;52.546;13.428;2022-09-29T00:15:02;5.30;;;5.00;;
3943;SDS011;1986;52.546;13.428;2022-09-29T00:17:31;3.63;;;3.53;;
3943;SDS011;1986;52.546;13.428;2022-09-29T00:19:58;2.63;;;2.63;;
3943;SDS011;1986;52.546;13.428;2022-09-29T00:22:25;4.07;;;3.97;;
3943;SDS011;1986;52.546;13.428;2022-09-29T00:24:52;3.50;;;3.40;;
3943;SDS011;1986;52.546;13.428;2022-09-29T00:27:20;2.40;;;2.40;;
3943;SDS011;1986;52.546;13.428;2022-09-29T00:29:47;4.70;;;3.73;;
3943;SDS011;1986;52.546;13.428;2022-09-29T00:32:14;3.50;;;3.40;;
3943;SDS011;1986;52.546;13.428;2022-09-29T00:34:41;3.07;;;2.97;;
3943;SDS011;1986;52.546;13.428;2022-09-29T00:37:08;2.30;;;2.30;;
3943;SDS011;1986;52.546;13.428;2022-09-29T00:39:35;4.60;;;4.20;;
3943;SDS011;1986;52.546;13.428;2022-09-29T00:42:02;3.07;;;3.00;;
3943;SDS011;1986;52.546;13.428;2022-09-29T00:47:35;3.27;;;2.97;;
3943;SDS011;1986;52.546;13.428;2022-09-29T00:50:05;2.43;;;2.33;;
3943;SDS011;1986;52.546;13.428;2022-09-29T00:52:39;2.20;;;2.20;;
3943;SDS011;1986;52.546;13.428;2022-09-29T00:55:11;2.67;;;2.67;;
3943;SDS011;1986;52.546;13.428;2022-09-29T00:57:43;1.83;;;1.83;;
3943;SDS011;1986;52.546;13.428;2022-09-29T01:00:13;2.53;;;2.43;;
3943;SDS011;1986;52.546;13.428;2022-09-29T01:02:46;3.33;;;2.20;;
3943;SDS011;1986;52.546;13.428;2022-09-29T01:05:18;7.40;;;2.93;;
3943;SDS011;1986;52.546;13.428;2022-09-29T01:07:48;1.87;;;1.87;;
3943;SDS011;1986;52.546;13.428;2022-09-29T01:10:16;1.50;;;1.50;;
3943;SDS011;1986;52.546;13.428;2022-09-29T01:12:45;1.60;;;1.60;;
3943;SDS011;1986;52.546;13.428;2022-09-29T01:15:14;1.57;;;1.57;;
3943;SDS011;1986;52.546;13.428;2022-09-29T01:17:45;1.40;;;1.40;;
3943;SDS011;1986;52.546;13.428;2022-09-29T01:20:14;1.50;;;1.50;;
3943;SDS011;1986;52.546;13.428;2022-09-29T01:22:57;1.40;;;1.40;;
3943;SDS011;1986;52.546;13.428;2022-09-29T01:26:04;1.60;;;1.60;;
3943;SDS011;1986;52.546;13.428;2022-09-29T01:29:02;1.60;;;1.60;;
3943;SDS011;1986;52.546;13.428;2022-09-29T01:31:52;1.60;;;1.60;;
3943;SDS011;1986;52.546;13.428;2022-09-29T01:34:23;1.60;;;1.60;;
3943;SDS011;1986;52.546;13.428;2022-09-29T01:37:02;1.67;;;1.67;;
3943;SDS011;1986;52.546;13.428;2022-09-29T01:39:37;1.70;;;1.70;;
3943;SDS011;1986;52.546;13.428;2022-09-29T01:42:09;1.70;;;1.70;;
3943;SDS011;1986;52.546;13.428;2022-09-29T01:44:43;1.80;;;1.80;;
3943;SDS011;1986;52.546;13.428;2022-09-29T01:47:17;1.67;;;1.67;;
3943;SDS011;1986;52.546;13.428;2022-09-29T01:49:52;5.30;;;3.10;;
3943;SDS011;1986;52.546;13.428;2022-09-29T01:52:23;1.50;;;1.50;;
3943;SDS011;1986;52.546;13.428;2022-09-29T01:54:54;1.70;;;1.70;;
3943;SDS011;1986;52.546;13.428;2022-09-29T01:57:26;1.80;;;1.80;;
3943;SDS011;1986;52.546;13.428;2022-09-29T02:00:00;1.80;;;1.80;;
3943;SDS011;1986;52.546;13.428;2022-09-29T02:02:35;1.60;;;1.60;;
3943;SDS011;1986;52.546;13.428;2022-09-29T02:05:07;1.70;;;1.70;;
3943;SDS011;1986;52.546;13.428;2022-09-29T02:07:40;1.80;;;1.80;;
3943;SDS011;1986;52.546;13.428;2022-09-29T02:10:12;1.80;;;1.80;;
3943;SDS011;1986;52.546;13.428;2022-09-29T02:12:44;1.70;;;1.70;;
3943;SDS011;1986;52.546;13.428;2022-09-29T02:15:14;2.47;;;2.37;;
3943;SDS011;1986;52.546;13.428;2022-09-29T02:17:47;2.33;;;2.23;;
3943;SDS011;1986;52.546;13.428;2022-09-29T02:20:16;1.30;;;1.30;;
3943;SDS011;1986;52.546;13.428;2022-09-29T02:22:44;3.13;;;2.13;;
3943;SDS011;1986;52.546;13.428;2022-09-29T02:25:11;2.50;;;2.40;;
3943;SDS011;1986;52.546;13.428;2022-09-29T02:27:41;1.20;;;1.20;;
3943;SDS011;1986;52.546;13.428;2022-09-29T02:30:09;1.20;;;1.20;;
3943;SDS011;1986;52.546;13.428;2022-09-29T02:32:37;1.93;;;1.93;;
3943;SDS011;1986;52.546;13.428;2022-09-29T02:35:06;1.40;;;1.40;;
3943;SDS011;1986;52.546;13.428;2022-09-29T02:37:40;1.40;;;1.40;;
3943;SDS011;1986;52.546;13.428;2022-09-29T02:40:21;1.60;;;1.60;;
3943;SDS011;1986;52.546;13.428;2022-09-29T02:43:04;1.30;;;1.30;;
3943;SDS011;1986;52.546;13.428;2022-09-29T02:46:02;1.20;;;1.20;;
3943;SDS011;1986;52.546;13.428;2022-09-29T02:48:48;1.80;;;1.77;;
3943;SDS011;1986;52.546;13.428;2022-09-29T02:51:32;1.70;;;1.70;;
3943;SDS011;1986;52.546;13.428;2022-09-29T02:54:06;1.87;;;1.80;;
3943;SDS011;1986;52.546;13.428;2022-09-29T02:56:52;2.17;;;2.07;;
3943;SDS011;1986;52.546;13.428;2022-09-29T02:59:34;1.57;;;1.57;;
3943;SDS011;1986;52.546;13.428;2022-09-29T03:02:22;2.30;;;2.20;;
3943;SDS011;1986;52.546;13.428;2022-09-29T03:04:49;1.67;;;1.67;;
3943;SDS011;1986;52.546;13.428;2022-09-29T03:07:19;1.50;;;1.50;;
3943;SDS011;1986;52.546;13.428;2022-09-29T03:09:46;3.10;;;2.90;;
3943;SDS011;1986;52.546;13.428;2022-09-29T03:12:13;2.93;;;2.83;;
3943;SDS011;1986;52.546;13.428;2022-09-29T03:14:44;11.53;;;3.53;;
3943;SDS011;1986;52.546;13.428;2022-09-29T03:17:11;1.57;;;1.57;;
3943;SDS011;1986;52.546;13.428;2022-09-29T03:19:38;2.33;;;2.23;;
3943;SDS011;1986;52.546;13.428;2022-09-29T03:22:04;4.93;;;3.53;;
3943;SDS011;1986;52.546;13.428;2022-09-29T03:24:33;1.80;;;1.80;;
3943;SDS011;1986;52.546;13.428;2022-09-29T03:27:00;1.93;;;1.93;;
3943;SDS011;1986;52.546;13.428;2022-09-29T03:29:27;4.83;;;3.90;;
3943;SDS011;1986;52.546;13.428;2022-09-29T03:31:54;2.23;;;2.13;;
3943;SDS011;1986;52.546;13.428;2022-09-29T03:34:23;2.30;;;2.30;;
3943;SDS011;1986;52.546;13.428;2022-09-29T03:36:49;2.83;;;2.73;;
3943;SDS011;1986;52.546;13.428;2022-09-29T03:39:16;4.80;;;4.57;;
3943;SDS011;1986;52.546;13.428;2022-09-29T03:41:44;2.27;;;2.27;;
3943;SDS011;1986;52.546;13.428;2022-09-29T03:44:13;4.43;;;4.23;;
3943;SDS011;1986;52.546;13.428;2022-09-29T03:46:39;2.17;;;2.17;;
3943;SDS011;1986;52.546;13.428;2022-09-29T03:49:08;4.43;;;4.33;;
3943;SDS011;1986;52.546;13.428;2022-09-29T03:51:36;3.53;;;3.37;;
3943;SDS011;1986;52.546;13.428;2022-09-29T03:54:03;2.30;;;2.30;;
3943;SDS011;1986;52.546;13.428;2022-09-29T03:56:30;3.43;;;3.33;;
3943;SDS011;1986;52.546;13.428;2022-09-29T03:59:01;6.00;;;4.23;;
3943;SDS011;1986;52.546;13.428;2022-09-29T04:01:30;4.30;;;4.07;;
3943;SDS011;1986;52.546;13.428;2022-09-29T04:03:57;2.70;;;2.70;;
3943;SDS011;1986;52.546;13.428;2022-09-29T04:06:24;2.50;;;2.50;;
3943;SDS011;1986;52.546;13.428;2022-09-29T04:08:51;2.90;;;2.90;;
3943;SDS011;1986;52.546;13.428;2022-09-29T04:11:18;3.20;;;3.20;;
3943;SDS011;1986;52.546;13.428;2022-09-29T04:13:45;2.80;;;2.80;;
3943;SDS011;1986;52.546;13.428;2022-09-29T04:16:14;3.03;;;3.03;;
3943;SDS011;1986;52.546;13.428;2022-09-29T04:18:41;3.97;;;3.83;;
3943;SDS011;1986;52.546;13.428;2022-09-29T04:21:08;5.50;;;5.30;;
3943;SDS011;1986;52.546;13.428;2022-09-29T04:23:37;3.10;;;3.10;;
3943;SDS011;1986;52.546;13.428;2022-09-29T04:26:03;3.30;;;3.30;;
3943;SDS011;1986;52.546;13.428;2022-09-29T04:28:35;3.33;;;3.33;;
3943;SDS011;1986;52.546;13.428;2022-09-29T04:31:02;4.33;;;4.13;;
3943;SDS011;1986;52.546;13.428;2022-09-29T04:33:31;4.10;;;4.00;;
3943;SDS011;1986;52.546;13.428;2022-09-29T04:36:03;5.23;;;4.93;;
3943;SDS011;1986;52.546;13.428;2022-09-29T04:38:30;4.03;;;3.93;;
3943;SDS011;1986;52.546;13.428;2022-09-29T04:40:57;5.80;;;5.50;;
3943;SDS011;1986;52.546;13.428;2022-09-29T04:43:24;3.47;;;3.47;;
3943;SDS011;1986;52.546;13.428;2022-09-29T04:45:51;3.97;;;3.90;;
3943;SDS011;1986;52.546;13.428;2022-09-29T04:48:20;5.70;;;5.40;;
3943;SDS011;1986;52.546;13.428;2022-09-29T04:50:50;3.97;;;3.87;;
3943;SDS011;1986;52.546;13.428;2022-09-29T04:53:20;5.27;;;5.03;;
3943;SDS011;1986;52.546;13.428;2022-09-29T04:55:47;6.67;;;6.20;;
3943;SDS011;1986;52.546;13.428;2022-09-29T04:58:16;11.30;;;7.50;;
3943;SDS011;1986;52.546;13.428;2022-09-29T05:00:43;8.23;;;4.30;;
3943;SDS011;1986;52.546;13.428;2022-09-29T05:03:10;3.90;;;3.90;;
3943;SDS011;1986;52.546;13.428;2022-09-29T05:05:37;4.40;;;4.20;;
3943;SDS011;1986;52.546;13.428;2022-09-29T05:08:05;10.70;;;7.97;;
3943;SDS011;1986;52.546;13.428;2022-09-29T05:10:33;4.00;;;3.90;;
3943;SDS011;1986;52.546;13.428;2022-09-29T05:13:00;3.67;;;3.67;;
3943;SDS011;1986;52.546;13.428;2022-09-29T05:15:27;3.70;;;3.70;;
3943;SDS011;1986;52.546;13.428;2022-09-29T05:17:54;5.03;;;4.83;;
3943;SDS011;1986;52.546;13.428;2022-09-29T05:20:23;4.33;;;4.23;;
3943;SDS011;1986;52.546;13.428;2022-09-29T05:22:50;3.90;;;3.80;;
3943;SDS011;1986;52.546;13.428;2022-09-29T05:25:18;7.37;;;6.73;;
3943;SDS011;1986;52.546;13.428;2022-09-29T05:27:45;3.57;;;3.50;;
3943;SDS011;1986;52.546;13.428;2022-09-29T05:30:11;3.30;;;3.30;;
3943;SDS011;1986;52.546;13.428;2022-09-29T05:32:38;3.60;;;3.60;;
3943;SDS011;1986;52.546;13.428;2022-09-29T05:35:10;4.47;;;4.33;;
3943;SDS011;1986;52.546;13.428;2022-09-29T05:37:37;4.43;;;4.33;;
3943;SDS011;1986;52.546;13.428;2022-09-29T05:40:04;5.30;;;5.10;;
3943;SDS011;1986;52.546;13.428;2022-09-29T05:42:40;4.60;;;4.50;;
3943;SDS011;1986;52.546;13.428;2022-09-29T05:45:10;4.03;;;3.93;;
3943;SDS011;1986;52.546;13.428;2022-09-29T05:47:39;3.90;;;3.90;;
3943;SDS011;1986;52.546;13.428;2022-09-29T05:50:08;4.40;;;4.30;;
3943;SDS011;1986;52.546;13.428;2022-09-29T05:52:39;5.93;;;5.73;;
3943;SDS011;1986;52.546;13.428;2022-09-29T05:55:06;6.20;;;5.80;;
3943;SDS011;1986;52.546;13.428;2022-09-29T05:57:34;5.90;;;5.53;;
3943;SDS011;1986;52.546;13.428;2022-09-29T06:00:06;7.23;;;6.83;;
3943;SDS011;1986;52.546;13.428;2022-09-29T06:02:33;12.57;;;6.57;;
3943;SDS011;1986;52.546;13.428;2022-09-29T06:05:00;5.70;;;5.40;;
3943;SDS011;1986;52.546;13.428;2022-09-29T06:07:27;6.70;;;6.30;;
3943;SDS011;1986;52.546;13.428;2022-09-29T06:09:54;6.23;;;5.63;;
3943;SDS011;1986;52.546;13.428;2022-09-29T06:12:24;9.33;;;6.17;;
3943;SDS011;1986;52.546;13.428;2022-09-29T06:14:54;4.40;;;4.30;;
3943;SDS011;1986;52.546;13.428;2022-09-29T06:17:22;3.90;;;3.87;;
3943;SDS011;1986;52.546;13.428;2022-09-29T06:19:49;6.67;;;6.13;;
3943;SDS011;1986;52.546;13.428;2022-09-29T06:22:18;7.23;;;6.83;;
3943;SDS011;1986;52.546;13.428;2022-09-29T06:24:45;4.37;;;4.27;;
3943;SDS011;1986;52.546;13.428;2022-09-29T06:27:12;17.53;;;8.37;;
3943;SDS011;1986;52.546;13.428;2022-09-29T06:29:41;4.20;;;4.10;;
3943;SDS011;1986;52.546;13.428;2022-09-29T06:32:08;13.87;;;7.37;;
3943;SDS011;1986;52.546;13.428;2022-09-29T06:34:38;6.40;;;6.10;;
3943;SDS011;1986;52.546;13.428;2022-09-29T06:37:25;5.30;;;5.20;;
3943;SDS011;1986;52.546;13.428;2022-09-29T06:40:00;6.03;;;5.93;;
3943;SDS011;1986;52.546;13.428;2022-09-29T06:42:27;8.83;;;6.97;;
3943;SDS011;1986;52.546;13.428;2022-09-29T06:44:54;5.20;;;5.10;;
3943;SDS011;1986;52.546;13.428;2022-09-29T06:47:21;5.57;;;5.47;;
3943;SDS011;1986;52.546;13.428;2022-09-29T06:49:52;9.17;;;8.80;;
3943;SDS011;1986;52.546;13.428;2022-09-29T06:52:19;6.00;;;5.90;;
3943;SDS011;1986;52.546;13.428;2022-09-29T06:54:46;6.13;;;5.93;;
3943;SDS011;1986;52.546;13.428;2022-09-29T06:57:14;9.90;;;9.20;;
3943;SDS011;1986;52.546;13.428;2022-09-29T06:59:43;7.00;;;6.80;;
3943;SDS011;1986;52.546;13.428;2022-09-29T07:02:10;6.27;;;6.17;;
3943;SDS011;1986;52.546;13.428;2022-09-29T07:04:39;6.93;;;6.70;;
3943;SDS011;1986;52.546;13.428;2022-09-29T07:07:08;5.23;;;5.13;;
3943;SDS011;1986;52.546;13.428;2022-09-29T07:09:35;7.00;;;6.70;;
3943;SDS011;1986;52.546;13.428;2022-09-29T07:12:02;6.00;;;5.90;;
3943;SDS011;1986;52.546;13.428;2022-09-29T07:14:30;8.13;;;7.43;;
3943;SDS011;1986;52.546;13.428;2022-09-29T07:16:57;5.30;;;5.20;;
3943;SDS011;1986;52.546;13.428;2022-09-29T07:19:24;6.13;;;5.80;;
3943;SDS011;1986;52.546;13.428;2022-09-29T07:21:51;4.80;;;4.70;;
3943;SDS011;1986;52.546;13.428;2022-09-29T07:24:22;6.63;;;6.27;;
3943;SDS011;1986;52.546;13.428;2022-09-29T07:26:49;6.23;;;5.97;;
3943;SDS011;1986;52.546;13.428;2022-09-29T07:29:16;7.30;;;6.90;;
3943;SDS011;1986;52.546;13.428;2022-09-29T07:31:43;6.73;;;6.33;;
3943;SDS011;1986;52.546;13.428;2022-09-29T07:34:10;6.10;;;5.70;;
3943;SDS011;1986;52.546;13.428;2022-09-29T07:36:37;6.20;;;5.97;;
3943;SDS011;1986;52.546;13.428;2022-09-29T07:39:08;5.90;;;5.70;;
3943;SDS011;1986;52.546;13.428;2022-09-29T07:41:37;5.57;;;5.40;;
3943;SDS011;1986;52.546;13.428;2022-09-29T07:44:04;8.47;;;6.70;;
3943;SDS011;1986;52.546;13.428;2022-09-29T07:46:30;12.23;;;7.20;;
3943;SDS011;1986;52.546;13.428;2022-09-29T07:48:57;6.73;;;6.43;;
3943;SDS011;1986;52.546;13.428;2022-09-29T07:51:24;7.73;;;7.00;;
3943;SDS011;1986;52.546;13.428;2022-09-29T07:53:52;6.00;;;5.80;;
3943;SDS011;1986;52.546;13.428;2022-09-29T07:56:19;10.10;;;9.30;;
3943;SDS011;1986;52.546;13.428;2022-09-29T07:58:48;5.77;;;5.67;;
3943;SDS011;1986;52.546;13.428;2022-09-29T08:01:16;6.47;;;6.30;;
3943;SDS011;1986;52.546;13.428;2022-09-29T08:03:44;6.27;;;5.83;;
3943;SDS011;1986;52.546;13.428;2022-09-29T08:06:16;10.63;;;9.67;;
3943;SDS011;1986;52.546;13.428;2022-09-29T08:08:43;6.87;;;6.57;;
3943;SDS011;1986;52.546;13.428;2022-09-29T08:11:10;10.53;;;7.90;;
3943;SDS011;1986;52.546;13.428;2022-09-29T08:13:39;7.70;;;7.20;;
3943;SDS011;1986;52.546;13.428;2022-09-29T08:16:09;6.97;;;6.87;;
3943;SDS011;1986;52.546;13.428;2022-09-29T08:18:38;10.20;;;7.53;;
3943;SDS011;1986;52.546;13.428;2022-09-29T08:21:06;9.13;;;8.63;;
3943;SDS011;1986;52.546;13.428;2022-09-29T08:23:34;8.17;;;7.97;;
3943;SDS011;1986;52.546;13.428;2022-09-29T08:26:02;7.70;;;7.60;;
3943;SDS011;1986;52.546;13.428;2022-09-29T08:28:31;14.70;;;11.00;;
3943;SDS011;1986;52.546;13.428;2022-09-29T08:31:02;14.57;;;9.60;;
3943;SDS011;1986;52.546;13.428;2022-09-29T08:33:32;13.50;;;10.33;;
3943;SDS011;1986;52.546;13.428;2022-09-29T08:36:01;7.30;;;7.20;;
3943;SDS011;1986;52.546;13.428;2022-09-29T08:38:30;7.70;;;7.50;;
3943;SDS011;1986;52.546;13.428;2022-09-29T08:41:03;8.27;;;8.07;;
3943;SDS011;1986;52.546;13.428;2022-09-29T08:43:30;7.80;;;7.70;;
3943;SDS011;1986;52.546;13.428;2022-09-29T08:46:04;8.80;;;8.60;;
3943;SDS011;1986;52.546;13.428;2022-09-29T08:48:36;10.50;;;10.20;;
3943;SDS011;1986;52.546;13.428;2022-09-29T08:51:11;12.10;;;11.43;;
3943;SDS011;1986;52.546;13.428;2022-09-29T08:53:47;10.37;;;10.17;;
3943;SDS011;1986;52.546;13.428;2022-09-29T08:56:16;11.20;;;10.90;;
3943;SDS011;1986;52.546;13.428;2022-09-29T08:58:43;11.30;;;11.00;;
3943;SDS011;1986;52.546;13.428;2022-09-29T09:01:14;10.97;;;10.67;;
3943;SDS011;1986;52.546;13.428;2022-09-29T09:03:52;11.40;;;11.10;;
3943;SDS011;1986;52.546;13.428;2022-09-29T09:06:39;11.47;;;11.17;;
3943;SDS011;1986;52.546;13.428;2022-09-29T09:09:39;13.67;;;12.90;;
3943;SDS011;1986;52.546;13.428;2022-09-29T09:12:23;11.10;;;10.80;;
3943;SDS011;1986;52.546;13.428;2022-09-29T09:15:05;11.50;;;11.20;;
3943;SDS011;1986;52.546;13.428;2022-09-29T09:17:48;13.73;;;13.23;;
3943;SDS011;1986;52.546;13.428;2022-09-29T09:20:31;12.93;;;12.53;;
3943;SDS011;1986;52.546;13.428;2022-09-29T09:22:59;15.17;;;14.47;;
3943;SDS011;1986;52.546;13.428;2022-09-29T09:25:34;12.43;;;12.10;;
3943;SDS011;1986;52.546;13.428;2022-09-29T09:28:04;13.80;;;13.40;;
3943;SDS011;1986;52.546;13.428;2022-09-29T09:30:40;13.30;;;12.90;;
3943;SDS011;1986;52.546;13.428;2022-09-29T09:33:15;19.70;;;18.13;;
3943;SDS011;1986;52.546;13.428;2022-09-29T09:35:51;13.97;;;13.53;;
3943;SDS011;1986;52.546;13.428;2022-09-29T09:38:24;15.13;;;14.20;;
3943;SDS011;1986;52.546;13.428;2022-09-29T09:40:54;13.40;;;13.00;;
3943;SDS011;1986;52.546;13.428;2022-09-29T09:43:25;14.47;;;13.87;;
3943;SDS011;1986;52.546;13.428;2022-09-29T09:45:55;16.80;;;15.70;;
3943;SDS011;1986;52.546;13.428;2022-09-29T09:48:28;20.03;;;18.10;;
3943;SDS011;1986;52.546;13.428;2022-09-29T09:51:00;17.67;;;16.97;;
3943;SDS011;1986;52.546;13.428;2022-09-29T09:53:44;17.13;;;16.43;;
3943;SDS011;1986;52.546;13.428;2022-09-29T09:56:16;16.80;;;15.77;;
3943;SDS011;1986;52.546;13.428;2022-09-29T09:58:57;17.33;;;16.30;;
3943;SDS011;1986;52.546;13.428;2022-09-29T10:01:34;14.63;;;14.13;;
3943;SDS011;1986;52.546;13.428;2022-09-29T10:04:01;15.73;;;14.43;;
3943;SDS011;1986;52.546;13.428;2022-09-29T10:06:30;19.47;;;18.47;;
3943;SDS011;1986;52.546;13.428;2022-09-29T10:09:00;15.63;;;15.03;;
3943;SDS011;1986;52.546;13.428;2022-09-29T10:11:27;17.90;;;16.93;;
3943;SDS011;1986;52.546;13.428;2022-09-29T10:13:57;19.13;;;18.00;;
3943;SDS011;1986;52.546;13.428;2022-09-29T10:16:31;17.73;;;16.93;;
3943;SDS011;1986;52.546;13.428;2022-09-29T10:19:05;18.63;;;17.43;;
3943;SDS011;1986;52.546;13.428;2022-09-29T10:21:37;17.10;;;16.30;;
3943;SDS011;1986;52.546;13.428;2022-09-29T10:24:09;15.80;;;15.20;;
3943;SDS011;1986;52.546;13.428;2022-09-29T10:26:47;17.93;;;16.83;;
3943;SDS011;1986;52.546;13.428;2022-09-29T10:29:17;20.70;;;18.97;;
3943;SDS011;1986;52.546;13.428;2022-09-29T10:32:01;17.40;;;16.60;;
3943;SDS011;1986;52.546;13.428;2022-09-29T10:34:34;17.73;;;16.93;;
3943;SDS011;1986;52.546;13.428;2022-09-29T10:37:16;16.90;;;16.20;;
3943;SDS011;1986;52.546;13.428;2022-09-29T10:39:47;17.00;;;16.20;;
3943;SDS011;1986;52.546;13.428;2022-09-29T10:42:16;17.47;;;16.53;;
3943;SDS011;1986;52.546;13.428;2022-09-29T10:44:49;18.10;;;17.30;;
3943;SDS011;1986;52.546;13.428;2022-09-29T10:47:18;18.47;;;17.37;;
3943;SDS011;1986;52.546;13.428;2022-09-29T10:52:35;19.97;;;18.60;;
3943;SDS011;1986;52.546;13.428;2022-09-29T10:55:02;17.30;;;16.50;;
3943;SDS011;1986;52.546;13.428;2022-09-29T10:57:31;18.03;;;17.13;;
3943;SDS011;1986;52.546;13.428;2022-09-29T10:59:59;17.67;;;16.87;;
3943;SDS011;1986;52.546;13.428;2022-09-29T11:02:29;19.23;;;18.33;;
3943;SDS011;1986;52.546;13.428;2022-09-29T11:05:01;17.50;;;16.70;;
3943;SDS011;1986;52.546;13.428;2022-09-29T11:07:30;17.70;;;16.90;;
3943;SDS011;1986;52.546;13.428;2022-09-29T11:10:00;18.23;;;17.43;;
3943;SDS011;1986;52.546;13.428;2022-09-29T11:12:28;17.93;;;17.13;;
3943;SDS011;1986;52.546;13.428;2022-09-29T11:14:58;18.37;;;17.50;;
3943;SDS011;1986;52.546;13.428;2022-09-29T11:17:26;17.83;;;16.93;;
3943;SDS011;1986;52.546;13.428;2022-09-29T11:19:55;18.10;;;17.20;;
3943;SDS011;1986;52.546;13.428;2022-09-29T11:22:27;17.50;;;16.60;;
3943;SDS011;1986;52.546;13.428;2022-09-29T11:28:40;20.43;;;19.13;;
3943;SDS011;1986;52.546;13.428;2022-09-29T11:31:30;17.70;;;16.90;;
3943;SDS011;1986;52.546;13.428;2022-09-29T11:34:13;17.87;;;16.97;;
3943;SDS011;1986;52.546;13.428;2022-09-29T11:36:59;19.33;;;18.00;;
3943;SDS011;1986;52.546;13.428;2022-09-29T11:39:35;18.07;;;17.23;;
3943;SDS011;1986;52.546;13.428;2022-09-29T11:42:28;17.37;;;16.57;;
3943;SDS011;1986;52.546;13.428;2022-09-29T11:45:17;19.13;;;18.03;;
3943;SDS011;1986;52.546;13.428;2022-09-29T11:48:02;17.80;;;17.00;;
3943;SDS011;1986;52.546;13.428;2022-09-29T11:50:43;19.33;;;18.37;;
3943;SDS011;1986;52.546;13.428;2022-09-29T11:53:24;18.33;;;17.43;;
3943;SDS011;1986;52.546;13.428;2022-09-29T11:56:19;18.60;;;17.60;;
3943;SDS011;1986;52.546;13.428;2022-09-29T11:59:02;17.90;;;17.00;;
3943;SDS011;1986;52.546;13.428;2022-09-29T12:01:53;17.87;;;16.97;;
3943;SDS011;1986;52.546;13.428;2022-09-29T12:04:31;18.37;;;17.47;;
3943;SDS011;1986;52.546;13.428;2022-09-29T12:07:10;17.50;;;16.70;;
3943;SDS011;1986;52.546;13.428;2022-09-29T12:12:47;16.97;;;16.17;;
3943;SDS011;1986;52.546;13.428;2022-09-29T12:15:23;18.57;;;17.47;;
3943;SDS011;1986;52.546;13.428;2022-09-29T12:17:59;18.00;;;17.10;;
3943;SDS011;1986;52.546;13.428;2022-09-29T12:20:30;19.50;;;18.37;;
3943;SDS011;1986;52.546;13.428;2022-09-29T12:23:00;19.43;;;18.23;;
3943;SDS011;1986;52.546;13.428;2022-09-29T12:25:31;18.03;;;17.10;;
3943;SDS011;1986;52.546;13.428;2022-09-29T12:28:01;17.80;;;16.90;;
3943;SDS011;1986;52.546;13.428;2022-09-29T12:30:36;18.97;;;17.77;;
3943;SDS011;1986;52.546;13.428;2022-09-29T12:33:12;18.50;;;17.60;;
3943;SDS011;1986;52.546;13.428;2022-09-29T12:35:46;17.73;;;16.93;;
3943;SDS011;1986;52.546;13.428;2022-09-29T12:38:20;19.07;;;18.07;;
3943;SDS011;1986;52.546;13.428;2022-09-29T12:40:57;19.13;;;18.13;;
3943;SDS011;1986;52.546;13.428;2022-09-29T12:43:32;18.67;;;17.67;;
3943;SDS011;1986;52.546;13.428;2022-09-29T12:46:09;20.80;;;19.50;;
3943;SDS011;1986;52.546;13.428;2022-09-29T12:48:48;17.80;;;16.90;;
3943;SDS011;1986;52.546;13.428;2022-09-29T12:51:26;17.80;;;16.90;;
3943;SDS011;1986;52.546;13.428;2022-09-29T12:54:00;18.20;;;17.30;;
3943;SDS011;1986;52.546;13.428;2022-09-29T12:56:40;18.13;;;17.23;;
3943;SDS011;1986;52.546;13.428;2022-09-29T12:59:16;18.57;;;17.67;;
3943;SDS011;1986;52.546;13.428;2022-09-29T13:01:55;19.87;;;18.63;;
3943;SDS011;1986;52.546;13.428;2022-09-29T13:07:39;18.87;;;17.90;;
3943;SDS011;1986;52.546;13.428;2022-09-29T13:10:26;18.27;;;17.37;;
3943;SDS011;1986;52.546;13.428;2022-09-29T13:16:24;17.60;;;16.80;;
3943;SDS011;1986;52.546;13.428;2022-09-29T13:19:16;18.23;;;17.23;;
3943;SDS011;1986;52.546;13.428;2022-09-29T13:22:23;18.00;;;17.10;;
3943;SDS011;1986;52.546;13.428;2022-09-29T13:25:09;18.50;;;17.60;;
3943;SDS011;1986;52.546;13.428;2022-09-29T13:27:45;18.50;;;17.60;;
3943;SDS011;1986;52.546;13.428;2022-09-29T13:30:18;19.27;;;18.27;;
3943;SDS011;1986;52.546;13.428;2022-09-29T13:32:47;18.60;;;17.70;;
3943;SDS011;1986;52.546;13.428;2022-09-29T13:35:17;19.40;;;18.20;;
3943;SDS011;1986;52.546;13.428;2022-09-29T13:37:50;19.67;;;18.57;;
3943;SDS011;1986;52.546;13.428;2022-09-29T13:40:21;18.90;;;17.90;;
3943;SDS011;1986;52.546;13.428;2022-09-29T13:42:50;19.13;;;18.13;;
3943;SDS011;1986;52.546;13.428;2022-09-29T13:48:33;20.37;;;19.17;;
3943;SDS011;1986;52.546;13.428;2022-09-29T13:54:34;19.43;;;18.40;;
3943;SDS011;1986;52.546;13.428;2022-09-29T14:02:46;19.70;;;18.60;;
3943;SDS011;1986;52.546;13.428;2022-09-29T14:05:45;19.30;;;18.20;;
3943;SDS011;1986;52.546;13.428;2022-09-29T14:08:37;19.70;;;18.60;;
3943;SDS011;1986;52.546;13.428;2022-09-29T14:11:12;19.70;;;18.60;;
3943;SDS011;1986;52.546;13.428;2022-09-29T14:13:45;19.90;;;18.80;;
3943;SDS011;1986;52.546;13.428;2022-09-29T14:16:32;19.93;;;18.83;;
3943;SDS011;1986;52.546;13.428;2022-09-29T14:19:06;19.70;;;18.60;;
3943;SDS011;1986;52.546;13.428;2022-09-29T14:21:45;20.10;;;18.90;;
3943;SDS011;1986;52.546;13.428;2022-09-29T14:27:20;19.37;;;18.37;;
3943;SDS011;1986;52.546;13.428;2022-09-29T14:29:55;19.60;;;18.60;;
3943;SDS011;1986;52.546;13.428;2022-09-29T14:32:34;19.50;;;18.50;;
3943;SDS011;1986;52.546;13.428;2022-09-29T14:35:12;20.57;;;19.37;;
3943;SDS011;1986;52.546;13.428;2022-09-29T14:37:47;19.70;;;18.60;;
3943;SDS011;1986;52.546;13.428;2022-09-29T14:40:22;19.53;;;18.53;;
3943;SDS011;1986;52.546;13.428;2022-09-29T14:43:08;19.70;;;18.60;;
3943;SDS011;1986;52.546;13.428;2022-09-29T14:45:46;19.80;;;18.70;;
3943;SDS011;1986;52.546;13.428;2022-09-29T14:48:45;19.87;;;18.67;;
3943;SDS011;1986;52.546;13.428;2022-09-29T14:51:39;19.00;;;18.00;;
3943;SDS011;1986;52.546;13.428;2022-09-29T14:54:36;21.50;;;19.80;;
3943;SDS011;1986;52.546;13.428;2022-09-29T14:57:34;19.43;;;18.33;;
3943;SDS011;1986;52.546;13.428;2022-09-29T15:00:11;19.40;;;18.30;;
3943;SDS011;1986;52.546;13.428;2022-09-29T15:02:42;19.50;;;18.40;;
3943;SDS011;1986;52.546;13.428;2022-09-29T15:05:12;19.03;;;18.03;;
3943;SDS011;1986;52.546;13.428;2022-09-29T15:07:48;19.10;;;18.10;;
3943;SDS011;1986;52.546;13.428;2022-09-29T15:10:20;19.77;;;18.67;;
3943;SDS011;1986;52.546;13.428;2022-09-29T15:12:49;19.00;;;18.00;;
3943;SDS011;1986;52.546;13.428;2022-09-29T15:15:31;19.60;;;18.60;;
3943;SDS011;1986;52.546;13.428;2022-09-29T15:18:08;19.20;;;18.20;;
3943;SDS011;1986;52.546;13.428;2022-09-29T15:20:50;18.90;;;17.90;;
3943;SDS011;1986;52.546;13.428;2022-09-29T15:23:30;19.23;;;18.23;;
3943;SDS011;1986;52.546;13.428;2022-09-29T15:26:07;20.27;;;19.27;;
3943;SDS011;1986;52.546;13.428;2022-09-29T15:28:39;19.80;;;18.80;;
3943;SDS011;1986;52.546;13.428;2022-09-29T15:31:10;20.20;;;19.20;;
3943;SDS011;1986;52.546;13.428;2022-09-29T15:33:42;19.30;;;18.40;;
3943;SDS011;1986;52.546;13.428;2022-09-29T15:36:15;19.17;;;18.27;;
3943;SDS011;1986;52.546;13.428;2022-09-29T15:38:49;19.60;;;18.60;;
3943;SDS011;1986;52.546;13.428;2022-09-29T15:41:18;19.50;;;18.40;;
3943;SDS011;1986;52.546;13.428;2022-09-29T15:43:53;19.40;;;18.30;;
3943;SDS011;1986;52.546;13.428;2022-09-29T15:46:25;20.10;;;18.97;;
3943;SDS011;1986;52.546;13.428;2022-09-29T15:49:05;19.90;;;18.90;;
3943;SDS011;1986;52.546;13.428;2022-09-29T15:51:44;20.27;;;19.13;;
3943;SDS011;1986;52.546;13.428;2022-09-29T15:54:20;19.53;;;18.43;;